Time;durP1;ratioP1;P1;durP2;ratioP2;P2;SDS_P1;SDS_P2;PMS_P1;PMS_P2;Temp;Humidity;BMP_temperature;BMP_pressure;BME280_temperature;BME280_humidity;BME280_pressure;Samples;Min_cycle;Max_cycle;Signal;HPM_P1;HPM_P2
2024/01/27 00:00:09;;;;;;;5.00;1.42;;;2.40;99.90;;;;;;5073492;28;20040;-70
2024/01/27 00:02:35;;;;;;;6.53;1.23;;;2.40;99.90;;;;;;5065904;28;20052;-70
2024/01/27 00:05:02;;;;;;;9.07;1.02;;;2.40;99.90;;;;;;5063400;28;20052;-71
2024/01/27 00:07:28;;;;;;;5.43;1.27;;;2.40;99.90;;;;;;5064269;28;20040;-70
2024/01/27 00:09:55;;;;;;;19.20;2.05;;;2.50;99.90;;;;;;5076942;28;20070;-70
2024/01/27 00:12:21;;;;;;;9.10;1.58;;;2.50;99.90;;;;;;5070073;28;20086;-70
2024/01/27 00:14:46;;;;;;;7.10;1.15;;;2.50;99.90;;;;;;5069629;28;20487;-71
2024/01/27 00:17:12;;;;;;;15.48;1.73;;;2.50;99.90;;;;;;5050269;28;20132;-70
2024/01/27 00:19:38;;;;;;;8.50;2.00;;;2.50;99.90;;;;;;5049206;28;20041;-71
2024/01/27 00:22:03;;;;;;;11.38;1.40;;;2.50;99.90;;;;;;5048995;28;20045;-71
2024/01/27 00:24:29;;;;;;;6.55;1.92;;;2.60;99.90;;;;;;5066323;28;20089;-70
2024/01/27 00:26:55;;;;;;;1.02;0.77;;;2.60;99.90;;;;;;5055983;28;20052;-71
2024/01/27 00:29:20;;;;;;;6.72;1.05;;;2.60;99.90;;;;;;5067072;28;20041;-71
2024/01/27 00:31:46;;;;;;;0.73;0.50;;;2.60;99.90;;;;;;5061211;28;20037;-70
2024/01/27 00:34:12;;;;;;;6.68;0.80;;;2.60;99.90;;;;;;5056964;28;20530;-70
2024/01/27 00:36:37;;;;;;;3.95;1.48;;;2.70;99.90;;;;;;5058505;28;20041;-70
2024/01/27 00:39:04;;;;;;;20.20;2.17;;;2.70;99.90;;;;;;5069755;28;20208;-71
2024/01/27 00:41:30;;;;;;;4.53;1.55;;;2.80;99.90;;;;;;5078967;28;20600;-71
2024/01/27 00:43:56;;;;;;;11.90;2.58;;;2.80;99.90;;;;;;5064009;28;20096;-70
2024/01/27 00:46:22;;;;;;;5.05;0.88;;;2.80;99.90;;;;;;5055509;28;20566;-70
2024/01/27 00:48:47;;;;;;;13.95;1.88;;;2.80;99.90;;;;;;5055292;28;20041;-70
2024/01/27 00:51:13;;;;;;;2.70;1.38;;;2.80;99.90;;;;;;5067838;28;20028;-71
2024/01/27 00:53:41;;;;;;;5.50;1.15;;;2.80;99.90;;;;;;5066173;28;20037;-70
2024/01/27 00:56:07;;;;;;;17.85;3.03;;;2.90;99.90;;;;;;5049566;28;20184;-70
2024/01/27 00:58:33;;;;;;;10.20;1.23;;;2.80;99.90;;;;;;5058911;28;20080;-70
2024/01/27 01:00:59;;;;;;;6.60;1.10;;;2.90;99.90;;;;;;5060036;28;20041;-71
2024/01/27 01:03:25;;;;;;;16.02;1.88;;;2.90;99.90;;;;;;5059858;28;20117;-71
2024/01/27 01:05:51;;;;;;;10.35;2.03;;;2.90;99.90;;;;;;5055365;28;20049;-70
2024/01/27 01:08:16;;;;;;;5.32;1.15;;;3.00;99.90;;;;;;5059801;28;20047;-70
2024/01/27 01:10:42;;;;;;;15.43;1.30;;;3.00;99.90;;;;;;5073868;28;20100;-71
2024/01/27 01:13:07;;;;;;;1.73;0.85;;;3.00;99.90;;;;;;5057535;28;20042;-71
2024/01/27 01:15:33;;;;;;;3.95;1.27;;;2.90;99.90;;;;;;5064122;28;20586;-70
2024/01/27 01:17:59;;;;;;;3.33;1.00;;;2.90;99.90;;;;;;5065790;28;20380;-71
2024/01/27 01:20:26;;;;;;;10.95;2.47;;;2.90;99.90;;;;;;5076877;28;20530;-71
2024/01/27 01:22:52;;;;;;;6.30;1.25;;;2.80;99.90;;;;;;5080361;28;20059;-71
2024/01/27 01:25:18;;;;;;;12.55;2.00;;;2.80;99.90;;;;;;5064939;28;20500;-71
2024/01/27 01:27:46;;;;;;;4.00;0.90;;;2.90;99.90;;;;;;5056473;28;20601;-71
2024/01/27 01:30:12;;;;;;;7.80;1.80;;;2.90;99.90;;;;;;5048076;28;20033;-71
2024/01/27 01:32:37;;;;;;;12.18;1.95;;;2.80;99.90;;;;;;5076564;28;20040;-71
2024/01/27 01:35:03;;;;;;;8.18;1.25;;;2.80;99.90;;;;;;5076226;28;20036;-70
2024/01/27 01:37:29;;;;;;;11.45;1.77;;;2.80;99.90;;;;;;5061328;28;20068;-71
2024/01/27 01:39:55;;;;;;;10.23;1.25;;;2.80;99.90;;;;;;5047205;28;20041;-71
2024/01/27 01:42:24;;;;;;;6.07;0.85;;;2.80;99.90;;;;;;5056026;28;20037;-71
2024/01/27 01:44:51;;;;;;;8.73;2.00;;;2.70;99.90;;;;;;5069265;28;20045;-71
2024/01/27 01:47:17;;;;;;;11.07;2.08;;;2.70;99.90;;;;;;5059138;28;20033;-70
2024/01/27 01:49:43;;;;;;;13.55;1.92;;;2.70;99.90;;;;;;5061537;28;20504;-71
2024/01/27 01:52:10;;;;;;;0.82;0.70;;;2.70;99.90;;;;;;5057011;28;20067;-71
2024/01/27 01:54:37;;;;;;;8.93;1.20;;;2.70;99.90;;;;;;5063390;28;20030;-71
2024/01/27 01:57:03;;;;;;;8.93;1.75;;;2.60;99.90;;;;;;5066942;28;20087;-71
2024/01/27 01:59:29;;;;;;;3.08;1.35;;;2.60;99.90;;;;;;5054186;28;20052;-71
2024/01/27 02:01:55;;;;;;;6.32;1.60;;;2.60;99.90;;;;;;5067772;28;20036;-71
2024/01/27 02:04:20;;;;;;;11.60;1.48;;;2.60;99.90;;;;;;5073223;28;20108;-71
2024/01/27 02:06:46;;;;;;;9.38;1.30;;;2.50;99.90;;;;;;5068012;28;20461;-71
2024/01/27 02:09:12;;;;;;;4.75;1.25;;;2.50;99.90;;;;;;5061252;28;20044;-71
2024/01/27 02:11:38;;;;;;;7.97;1.20;;;2.50;99.90;;;;;;5058309;28;20126;-71
2024/01/27 02:14:04;;;;;;;4.07;1.88;;;2.40;99.90;;;;;;5074845;28;20033;-71
2024/01/27 02:16:30;;;;;;;8.10;1.92;;;2.30;99.90;;;;;;5060873;28;20083;-71
2024/01/27 02:18:55;;;;;;;16.83;2.15;;;2.30;99.90;;;;;;5062853;28;20049;-71
2024/01/27 02:21:21;;;;;;;12.05;1.35;;;2.30;99.90;;;;;;5061581;28;20041;-71
2024/01/27 02:23:47;;;;;;;5.30;1.00;;;2.20;99.90;;;;;;5058920;28;20044;-71
2024/01/27 02:26:12;;;;;;;7.07;1.08;;;2.20;99.90;;;;;;5073852;28;20404;-71
2024/01/27 02:28:38;;;;;;;2.65;1.40;;;2.20;99.90;;;;;;5073899;28;20493;-70
2024/01/27 02:31:04;;;;;;;7.15;0.80;;;2.10;99.90;;;;;;5080379;28;20028;-70
2024/01/27 02:33:30;;;;;;;8.93;1.80;;;2.10;99.90;;;;;;5072408;28;20075;-71
2024/01/27 02:35:55;;;;;;;5.90;1.23;;;2.10;99.90;;;;;;5070104;28;20033;-70
2024/01/27 02:38:21;;;;;;;17.05;2.75;;;2.10;99.90;;;;;;5052807;28;20102;-70
2024/01/27 02:40:47;;;;;;;6.55;1.38;;;2.10;99.90;;;;;;5057313;28;20054;-70
2024/01/27 02:43:12;;;;;;;9.40;2.00;;;2.00;99.90;;;;;;5073167;28;20101;-70
2024/01/27 02:45:38;;;;;;;2.63;1.55;;;2.00;99.90;;;;;;5074407;28;20087;-70
2024/01/27 02:48:04;;;;;;;2.55;1.35;;;2.00;99.90;;;;;;5061871;28;20045;-71
2024/01/27 02:50:30;;;;;;;14.93;1.60;;;2.00;99.90;;;;;;5057203;28;20033;-70
2024/01/27 02:52:55;;;;;;;7.25;1.38;;;2.00;99.90;;;;;;5068972;28;20186;-71
2024/01/27 02:55:21;;;;;;;0.80;0.80;;;2.00;99.90;;;;;;5080382;28;20044;-71
2024/01/27 02:57:47;;;;;;;2.80;0.82;;;2.00;99.90;;;;;;5065604;28;20044;-71
2024/01/27 03:00:13;;;;;;;6.38;1.80;;;2.00;99.90;;;;;;5053609;28;20044;-71
2024/01/27 03:02:38;;;;;;;4.95;1.30;;;2.00;99.90;;;;;;5057969;28;20064;-70
2024/01/27 03:05:04;;;;;;;1.42;0.93;;;2.10;99.90;;;;;;5059161;28;20060;-70
2024/01/27 03:07:30;;;;;;;1.63;1.02;;;2.10;99.90;;;;;;5056543;28;20108;-70
2024/01/27 03:09:56;;;;;;;13.40;2.45;;;2.10;99.90;;;;;;5056468;28;20041;-70
2024/01/27 03:12:22;;;;;;;21.30;1.90;;;2.10;99.90;;;;;;5059244;28;20064;-70
2024/01/27 03:14:49;;;;;;;2.50;1.38;;;2.10;99.90;;;;;;5059857;28;20084;-70
2024/01/27 03:17:15;;;;;;;4.85;1.00;;;2.20;99.90;;;;;;5059805;28;20049;-70
2024/01/27 03:19:41;;;;;;;8.60;1.40;;;2.20;99.90;;;;;;5047304;28;20110;-70
2024/01/27 03:22:07;;;;;;;5.63;1.40;;;2.20;99.90;;;;;;5058883;28;20090;-70
2024/01/27 03:24:32;;;;;;;1.58;0.80;;;2.10;99.90;;;;;;5056775;28;20033;-70
2024/01/27 03:26:58;;;;;;;9.00;2.45;;;2.10;99.90;;;;;;5059579;28;20151;-70
2024/01/27 03:29:24;;;;;;;9.60;1.92;;;2.10;99.90;;;;;;5056086;28;20060;-70
2024/01/27 03:31:49;;;;;;;1.98;1.50;;;2.10;99.90;;;;;;5055924;28;20037;-70
2024/01/27 03:34:17;;;;;;;8.00;1.25;;;2.10;99.90;;;;;;5056877;28;20467;-70
2024/01/27 03:36:43;;;;;;;8.20;1.20;;;1.90;99.90;;;;;;5054851;28;20080;-70
2024/01/27 03:39:09;;;;;;;2.03;0.90;;;2.00;99.90;;;;;;5057541;28;20033;-70
2024/01/27 03:41:34;;;;;;;6.88;1.55;;;2.00;99.90;;;;;;5053860;28;20051;-70
2024/01/27 03:44:00;;;;;;;9.77;2.10;;;2.10;99.90;;;;;;5058345;28;20057;-70
2024/01/27 03:46:26;;;;;;;2.00;0.90;;;2.10;99.90;;;;;;5058224;28;20029;-70
2024/01/27 03:48:51;;;;;;;5.50;1.63;;;2.20;99.90;;;;;;5049599;28;20052;-70
2024/01/27 03:51:17;;;;;;;2.47;1.27;;;2.10;99.90;;;;;;5049416;28;20124;-70
2024/01/27 03:53:43;;;;;;;1.55;0.90;;;2.20;99.90;;;;;;5057497;28;20048;-70
2024/01/27 03:56:12;;;;;;;7.72;0.93;;;2.10;99.90;;;;;;5059418;28;20044;-70
2024/01/27 03:58:38;;;;;;;4.03;1.02;;;2.10;99.90;;;;;;5054598;28;20654;-71
2024/01/27 04:01:04;;;;;;;16.63;2.60;;;2.20;99.90;;;;;;5061809;28;20048;-70
2024/01/27 04:03:30;;;;;;;4.30;1.17;;;2.20;99.90;;;;;;5062652;28;20064;-70
2024/01/27 04:05:56;;;;;;;5.35;1.15;;;2.30;99.90;;;;;;5058034;28;20045;-70
2024/01/27 04:08:22;;;;;;;10.15;1.58;;;2.20;99.90;;;;;;5058556;28;20405;-70
2024/01/27 04:10:48;;;;;;;12.07;1.63;;;2.10;99.90;;;;;;5057281;28;20063;-70
2024/01/27 04:13:13;;;;;;;4.50;1.38;;;2.20;99.90;;;;;;5058107;28;20379;-71
2024/01/27 04:15:39;;;;;;;8.02;1.02;;;2.20;99.90;;;;;;5057501;28;20033;-70
2024/01/27 04:18:09;;;;;;;4.70;1.73;;;2.20;99.90;;;;;;5057972;28;20622;-70
2024/01/27 04:20:35;;;;;;;4.25;1.42;;;2.20;99.90;;;;;;5056611;28;20037;-70
2024/01/27 04:23:01;;;;;;;5.93;1.42;;;2.30;99.90;;;;;;5047283;28;20048;-70
2024/01/27 04:25:26;;;;;;;2.78;1.25;;;2.20;99.90;;;;;;5057861;28;20560;-70
2024/01/27 04:27:53;;;;;;;4.63;1.10;;;2.30;99.90;;;;;;5058630;28;20044;-70
2024/01/27 04:30:18;;;;;;;11.68;2.33;;;2.30;99.90;;;;;;5058650;28;20037;-70
2024/01/27 04:32:44;;;;;;;7.85;1.25;;;2.30;99.90;;;;;;5050764;28;20100;-70
2024/01/27 04:35:10;;;;;;;5.75;1.13;;;2.20;99.90;;;;;;5058347;28;20041;-71
2024/01/27 04:37:36;;;;;;;3.50;1.05;;;2.30;99.90;;;;;;5048375;28;20033;-71
2024/01/27 04:40:06;;;;;;;1.23;0.77;;;2.30;99.90;;;;;;5061819;28;20049;-70
2024/01/27 04:42:37;;;;;;;5.93;1.90;;;2.30;99.90;;;;;;5063101;28;20041;-70
2024/01/27 04:45:04;;;;;;;4.90;1.20;;;2.30;99.90;;;;;;5062613;28;20056;-70
2024/01/27 04:47:30;;;;;;;3.95;1.70;;;2.30;99.90;;;;;;5061496;28;20048;-70
2024/01/27 04:49:57;;;;;;;3.58;1.17;;;2.40;99.90;;;;;;5058171;28;20120;-70
2024/01/27 04:52:23;;;;;;;3.83;1.15;;;2.30;99.90;;;;;;5060882;28;20052;-70
2024/01/27 04:54:49;;;;;;;3.47;1.42;;;2.40;99.90;;;;;;5059654;28;20084;-70
2024/01/27 04:57:15;;;;;;;6.38;1.40;;;2.40;99.90;;;;;;5061430;28;20044;-70
2024/01/27 04:59:41;;;;;;;9.82;1.02;;;2.40;99.90;;;;;;5049271;28;20049;-70
2024/01/27 05:02:07;;;;;;;3.40;1.35;;;2.40;99.90;;;;;;5060901;28;20094;-70
2024/01/27 05:04:33;;;;;;;3.97;1.88;;;2.40;99.90;;;;;;5046698;28;20061;-71
2024/01/27 05:06:59;;;;;;;6.90;1.70;;;2.40;99.90;;;;;;5057277;28;20049;-71
2024/01/27 05:09:25;;;;;;;3.40;0.98;;;2.30;99.90;;;;;;5048508;28;20052;-70
2024/01/27 05:11:52;;;;;;;8.90;1.48;;;2.30;99.90;;;;;;5058066;28;20753;-70
2024/01/27 05:14:18;;;;;;;5.32;1.67;;;2.20;99.90;;;;;;5050513;28;20057;-70
2024/01/27 05:16:44;;;;;;;6.85;1.33;;;2.20;99.90;;;;;;5054601;28;20084;-70
2024/01/27 05:19:11;;;;;;;13.70;3.97;;;2.10;99.90;;;;;;5060037;28;20040;-70
2024/01/27 05:21:37;;;;;;;6.00;1.23;;;2.20;99.90;;;;;;5058225;28;20053;-70
2024/01/27 05:24:03;;;;;;;2.10;1.25;;;2.00;99.90;;;;;;5058395;28;20051;-70
2024/01/27 05:26:29;;;;;;;8.98;2.22;;;2.00;99.90;;;;;;5045240;28;20049;-70
2024/01/27 05:28:55;;;;;;;2.70;1.00;;;2.00;99.90;;;;;;5056999;28;20040;-70
2024/01/27 05:31:20;;;;;;;10.77;1.98;;;2.00;99.90;;;;;;5055653;28;20041;-70
2024/01/27 05:33:46;;;;;;;3.83;2.22;;;2.00;99.90;;;;;;5060857;28;20515;-70
2024/01/27 05:36:12;;;;;;;4.53;1.23;;;2.10;99.90;;;;;;5053267;28;20037;-70
2024/01/27 05:38:37;;;;;;;5.88;2.22;;;2.10;99.90;;;;;;5053691;28;20048;-70
2024/01/27 05:41:04;;;;;;;10.20;2.08;;;2.10;99.90;;;;;;5058828;28;20140;-70
2024/01/27 05:43:30;;;;;;;6.55;1.30;;;2.10;99.90;;;;;;5053478;28;20072;-70
2024/01/27 05:45:55;;;;;;;4.10;1.23;;;2.00;99.90;;;;;;5061520;28;20036;-70
2024/01/27 05:48:21;;;;;;;6.20;1.42;;;2.00;99.90;;;;;;5058669;28;20396;-70
2024/01/27 05:51:00;;;;;;;17.90;1.92;;;2.00;99.90;;;;;;5057872;28;20036;-70
2024/01/27 05:53:27;;;;;;;2.72;1.42;;;2.00;99.90;;;;;;5060367;28;20041;-70
2024/01/27 05:55:53;;;;;;;3.10;1.45;;;2.00;99.90;;;;;;5056379;28;20025;-70
2024/01/27 05:58:22;;;;;;;3.97;1.42;;;1.90;99.90;;;;;;5067223;28;20080;-70
2024/01/27 06:00:48;;;;;;;5.70;1.50;;;1.80;99.90;;;;;;5057114;28;20075;-70
2024/01/27 06:03:15;;;;;;;9.38;1.50;;;1.70;99.90;;;;;;5046377;28;20060;-70
2024/01/27 06:05:43;;;;;;;7.40;2.20;;;1.70;99.90;;;;;;5056502;28;20396;-70
2024/01/27 06:08:09;;;;;;;18.90;1.80;;;1.70;99.90;;;;;;5053007;28;20091;-70
2024/01/27 06:10:38;;;;;;;13.05;1.50;;;1.60;99.90;;;;;;5055443;28;20041;-70
2024/01/27 06:13:04;;;;;;;7.97;1.77;;;1.60;99.90;;;;;;5055741;28;20064;-70
2024/01/27 06:15:29;;;;;;;5.25;1.67;;;1.60;99.90;;;;;;5049031;28;20041;-70
2024/01/27 06:17:55;;;;;;;9.23;2.30;;;1.60;99.90;;;;;;5047996;28;20029;-70
2024/01/27 06:20:21;;;;;;;8.07;2.35;;;1.50;99.90;;;;;;5058301;28;20650;-69
2024/01/27 06:22:46;;;;;;;9.27;2.17;;;1.50;99.90;;;;;;5057837;28;20071;-70
2024/01/27 06:25:12;;;;;;;17.67;2.10;;;1.60;99.90;;;;;;5058426;28;20044;-69
2024/01/27 06:27:38;;;;;;;6.22;2.35;;;1.50;99.90;;;;;;5054757;28;20033;-69
2024/01/27 06:30:05;;;;;;;11.30;2.13;;;1.50;99.90;;;;;;5058820;28;20060;-70
2024/01/27 06:32:31;;;;;;;8.18;2.22;;;1.50;99.90;;;;;;5056768;28;20087;-69
2024/01/27 06:34:56;;;;;;;15.13;3.10;;;1.40;99.90;;;;;;5052481;28;20053;-69
2024/01/27 06:37:22;;;;;;;8.98;2.70;;;1.50;99.90;;;;;;5057490;28;20075;-69
2024/01/27 06:39:48;;;;;;;10.77;2.55;;;1.40;99.90;;;;;;5053331;28;20076;-69
2024/01/27 06:42:13;;;;;;;7.93;2.55;;;1.40;99.90;;;;;;5050772;28;20028;-69
2024/01/27 06:44:39;;;;;;;3.55;1.73;;;1.30;99.90;;;;;;5060380;28;20045;-69
2024/01/27 06:47:05;;;;;;;9.18;3.08;;;1.40;99.90;;;;;;5060495;28;20049;-69
2024/01/27 06:49:30;;;;;;;7.55;1.90;;;1.40;99.90;;;;;;5056023;28;20107;-69
2024/01/27 06:51:56;;;;;;;6.18;1.85;;;1.30;99.90;;;;;;5050306;28;20456;-70
2024/01/27 06:54:22;;;;;;;5.88;1.45;;;1.30;99.90;;;;;;5059551;28;20037;-69
2024/01/27 06:56:47;;;;;;;7.45;2.17;;;1.30;99.90;;;;;;5049629;28;20060;-70
2024/01/27 06:59:13;;;;;;;2.05;1.85;;;1.30;99.90;;;;;;5059063;28;20052;-70
2024/01/27 07:01:45;;;;;;;6.13;2.08;;;1.30;99.90;;;;;;5054479;28;20045;-70
2024/01/27 07:04:10;;;;;;;4.45;2.05;;;1.20;99.90;;;;;;5056290;28;20057;-70
2024/01/27 07:06:36;;;;;;;2.83;1.42;;;1.30;99.90;;;;;;5057847;28;20055;-69
2024/01/27 07:09:02;;;;;;;5.88;1.95;;;1.20;99.90;;;;;;5058329;28;20040;-69
2024/01/27 07:11:27;;;;;;;2.42;2.17;;;1.20;99.90;;;;;;5055341;28;20029;-69
2024/01/27 07:13:53;;;;;;;5.38;1.83;;;1.30;99.90;;;;;;5058205;28;20033;-69
2024/01/27 07:16:19;;;;;;;16.45;2.50;;;1.20;99.90;;;;;;5055072;28;20057;-70
2024/01/27 07:18:45;;;;;;;8.88;2.50;;;1.20;99.90;;;;;;5052536;28;20051;-69
2024/01/27 07:21:16;;;;;;;6.05;2.38;;;1.20;99.90;;;;;;5056693;28;20164;-69
2024/01/27 07:23:41;;;;;;;6.15;2.13;;;1.30;99.90;;;;;;5055334;28;20438;-69
2024/01/27 07:26:09;;;;;;;6.32;2.33;;;1.30;99.90;;;;;;5055178;28;20084;-69
2024/01/27 07:28:35;;;;;;;3.22;1.65;;;1.20;99.90;;;;;;5059114;28;20048;-69
2024/01/27 07:31:00;;;;;;;6.32;3.05;;;1.30;99.90;;;;;;5053589;28;20033;-69
2024/01/27 07:33:26;;;;;;;9.68;2.35;;;1.20;99.90;;;;;;5058077;28;20492;-69
2024/01/27 07:35:52;;;;;;;7.95;2.58;;;1.20;99.90;;;;;;5057005;28;20045;-69
2024/01/27 07:38:17;;;;;;;8.98;2.95;;;1.20;99.90;;;;;;5056075;28;20037;-69
2024/01/27 07:40:43;;;;;;;15.90;3.45;;;1.30;99.90;;;;;;5056823;28;20080;-69
2024/01/27 07:43:09;;;;;;;8.30;3.17;;;1.30;99.90;;;;;;5056773;28;20036;-69
2024/01/27 07:45:34;;;;;;;16.05;3.47;;;1.30;99.90;;;;;;5057232;28;20045;-69
2024/01/27 07:48:00;;;;;;;10.18;3.17;;;1.30;99.90;;;;;;5058015;28;20037;-69
2024/01/27 07:50:26;;;;;;;11.07;3.47;;;1.40;99.90;;;;;;5050408;28;20080;-69
2024/01/27 07:52:52;;;;;;;7.93;2.53;;;1.40;99.90;;;;;;5056232;28;20068;-69
2024/01/27 07:55:17;;;;;;;9.32;3.03;;;1.50;99.90;;;;;;5053354;28;20052;-69
2024/01/27 07:57:43;;;;;;;13.02;3.08;;;1.50;99.90;;;;;;5063855;28;20077;-69
2024/01/27 08:00:09;;;;;;;14.93;2.55;;;1.60;99.90;;;;;;5059111;28;20052;-69
2024/01/27 08:02:35;;;;;;;5.85;2.97;;;1.60;99.90;;;;;;5058032;28;20041;-69
2024/01/27 08:05:02;;;;;;;5.90;2.78;;;1.70;99.90;;;;;;5057320;28;20059;-69
2024/01/27 08:07:28;;;;;;;4.88;2.78;;;1.70;99.90;;;;;;5058908;28;20037;-69
2024/01/27 08:09:53;;;;;;;13.70;3.10;;;1.80;99.90;;;;;;5058635;28;20440;-69
2024/01/27 08:12:19;;;;;;;9.00;3.03;;;1.70;99.90;;;;;;5057587;28;20626;-69
2024/01/27 08:14:45;;;;;;;13.55;3.00;;;1.80;99.90;;;;;;5050359;28;20056;-69
2024/01/27 08:17:10;;;;;;;6.60;2.97;;;1.80;99.90;;;;;;5050439;28;20033;-69
2024/01/27 08:19:37;;;;;;;7.38;2.80;;;1.90;99.90;;;;;;5047551;28;20176;-69
2024/01/27 08:22:03;;;;;;;8.65;3.83;;;1.90;99.90;;;;;;5051812;28;20451;-69
2024/01/27 08:24:28;;;;;;;10.95;2.88;;;1.90;99.90;;;;;;5054406;28;20048;-69
2024/01/27 08:26:54;;;;;;;13.13;3.60;;;1.90;99.90;;;;;;5050385;28;20052;-69
2024/01/27 08:29:20;;;;;;;10.63;2.40;;;2.00;99.90;;;;;;5047158;28;20038;-69
2024/01/27 08:31:45;;;;;;;8.77;3.05;;;2.10;99.90;;;;;;5057926;28;20045;-69
2024/01/27 08:34:12;;;;;;;23.15;3.67;;;2.20;99.90;;;;;;5059033;28;20053;-69
2024/01/27 08:36:38;;;;;;;12.07;3.88;;;2.30;99.90;;;;;;5053219;28;20052;-69
2024/01/27 08:39:04;;;;;;;4.93;2.80;;;2.30;99.90;;;;;;5054147;28;20033;-69
2024/01/27 08:41:30;;;;;;;7.57;2.90;;;2.40;99.90;;;;;;5054733;28;20569;-69
2024/01/27 08:43:55;;;;;;;4.30;2.75;;;2.50;99.90;;;;;;5057181;28;20041;-69
2024/01/27 08:46:22;;;;;;;4.03;2.85;;;2.60;99.90;;;;;;5048533;28;20579;-69
2024/01/27 08:48:48;;;;;;;7.63;2.80;;;2.70;99.90;;;;;;5055947;28;20111;-69
2024/01/27 08:51:15;;;;;;;7.60;3.67;;;2.70;99.90;;;;;;5056021;28;20108;-69
2024/01/27 08:53:42;;;;;;;8.82;2.83;;;2.80;99.90;;;;;;5063963;28;20050;-69
2024/01/27 08:56:07;;;;;;;7.25;2.83;;;2.80;99.90;;;;;;5061314;28;20088;-69
2024/01/27 08:58:33;;;;;;;9.57;3.03;;;2.80;99.90;;;;;;5053906;28;20374;-70
2024/01/27 09:01:05;;;;;;;6.32;3.40;;;2.80;99.90;;;;;;5055497;28;20041;-69
2024/01/27 09:03:31;;;;;;;6.15;3.30;;;2.90;99.90;;;;;;5051232;28;20045;-70
2024/01/27 09:05:56;;;;;;;11.30;3.40;;;2.90;99.90;;;;;;5051617;28;20049;-69
2024/01/27 09:08:22;;;;;;;19.42;4.18;;;3.00;99.90;;;;;;5053835;28;20076;-69
2024/01/27 09:10:48;;;;;;;21.80;4.57;;;3.10;99.90;;;;;;5050086;28;20045;-69
2024/01/27 09:13:13;;;;;;;8.25;3.55;;;3.20;99.90;;;;;;5057769;28;20041;-69
2024/01/27 09:15:39;;;;;;;6.93;3.33;;;3.20;99.90;;;;;;5054603;28;20476;-69
2024/01/27 09:18:05;;;;;;;10.52;3.70;;;3.40;99.90;;;;;;5058031;28;20391;-69
2024/01/27 09:20:32;;;;;;;12.07;3.30;;;3.50;99.90;;;;;;5052876;28;20541;-69
2024/01/27 09:22:58;;;;;;;12.40;3.85;;;3.70;99.90;;;;;;5055724;28;20041;-70
2024/01/27 09:25:24;;;;;;;11.32;4.20;;;3.90;99.90;;;;;;5004479;28;20102;-77
2024/01/27 09:27:50;;;;;;;6.97;4.00;;;4.10;99.90;;;;;;5033680;28;20042;-73
2024/01/27 09:30:16;;;;;;;10.55;3.30;;;4.30;99.90;;;;;;5053069;28;20105;-75
2024/01/27 09:32:42;;;;;;;57.22;15.05;;;4.50;99.90;;;;;;5035655;28;20060;-74
2024/01/27 09:35:08;;;;;;;9.75;3.58;;;4.60;99.90;;;;;;5025886;28;20041;-73
2024/01/27 09:37:33;;;;;;;13.00;4.20;;;4.70;99.90;;;;;;5040695;28;20045;-73
2024/01/27 09:40:01;;;;;;;6.38;3.38;;;4.80;99.90;;;;;;5040534;28;20045;-76
2024/01/27 09:42:27;;;;;;;11.63;3.55;;;4.90;99.90;;;;;;5055006;28;20127;-81
2024/01/27 09:44:56;;;;;;;9.77;3.33;;;5.20;99.90;;;;;;5057784;28;20049;-81
2024/01/27 09:47:22;;;;;;;17.05;3.13;;;5.60;99.90;;;;;;5056462;28;20057;-76
2024/01/27 09:49:49;;;;;;;8.05;3.63;;;5.90;99.90;;;;;;5059213;28;20056;-77
2024/01/27 09:52:14;;;;;;;28.10;7.57;;;6.30;99.90;;;;;;5040450;28;20040;-76
2024/01/27 09:54:40;;;;;;;15.73;4.65;;;6.90;99.90;;;;;;5056884;28;20041;-77
2024/01/27 09:57:08;;;;;;;7.55;4.07;;;7.50;99.90;;;;;;5042593;28;20112;-77
2024/01/27 09:59:36;;;;;;;18.38;3.65;;;7.90;99.90;;;;;;5041371;28;20037;-75
2024/01/27 10:02:03;;;;;;;12.73;4.13;;;8.00;99.90;;;;;;5037470;28;20044;-77
2024/01/27 10:04:30;;;;;;;10.93;4.03;;;8.00;99.90;;;;;;5039741;28;20111;-74
2024/01/27 10:06:57;;;;;;;8.48;4.05;;;8.10;99.90;;;;;;5017810;28;20061;-77
2024/01/27 10:09:23;;;;;;;10.18;4.03;;;8.10;99.90;;;;;;5040766;28;20040;-76
2024/01/27 10:11:49;;;;;;;7.70;2.67;;;8.00;99.90;;;;;;5056282;28;20053;-77
2024/01/27 10:14:15;;;;;;;11.75;4.03;;;7.90;99.90;;;;;;5056190;28;20041;-78
2024/01/27 10:16:45;;;;;;;11.13;2.95;;;7.90;99.90;;;;;;5039839;28;20048;-76
2024/01/27 10:19:19;;;;;;;12.13;3.97;;;7.90;99.90;;;;;;5036565;28;20037;-77
2024/01/27 10:21:45;;;;;;;4.78;2.40;;;7.70;99.90;;;;;;5055196;28;20056;-76
2024/01/27 10:24:12;;;;;;;12.30;2.47;;;7.40;99.90;;;;;;5039611;28;20409;-77
2024/01/27 10:26:37;;;;;;;8.68;3.42;;;7.10;99.90;;;;;;5021025;28;20088;-75
2024/01/27 10:29:03;;;;;;;12.60;2.58;;;6.90;99.90;;;;;;5069219;28;20049;-77
2024/01/27 10:31:35;;;;;;;7.95;2.35;;;6.70;99.90;;;;;;5052444;28;20076;-78
2024/01/27 10:34:01;;;;;;;;;;;6.70;99.90;;;;;;5052373;28;20068;-75
2024/01/27 10:36:39;;;;;;;7.00;3.13;;;6.50;99.90;;;;;;5043185;28;19921;-75
2024/01/27 10:39:15;;;;;;;7.18;2.67;;;6.50;99.90;;;;;;5038678;28;20045;-75
2024/01/27 10:41:44;;;;;;;7.78;3.55;;;6.40;99.90;;;;;;5055070;28;20135;-75
2024/01/27 10:44:13;;;;;;;6.35;2.42;;;6.40;99.90;;;;;;5038241;28;20033;-79
2024/01/27 10:46:42;;;;;;;5.35;2.63;;;6.40;99.90;;;;;;5057228;28;20055;-82
2024/01/27 10:49:15;;;;;;;8.65;2.55;;;6.40;99.90;;;;;;5074104;28;20052;-77
2024/01/27 10:51:49;;;;;;;12.75;2.95;;;6.40;99.90;;;;;;5049172;28;20056;-82
2024/01/27 10:54:22;;;;;;;7.72;3.10;;;6.50;99.90;;;;;;5047509;28;20044;-77
2024/01/27 10:56:50;;;;;;;8.68;2.88;;;6.50;99.90;;;;;;5054342;28;20618;-77
2024/01/27 10:59:19;;;;;;;8.60;2.80;;;6.50;99.90;;;;;;5076213;28;20045;-77
2024/01/27 11:01:47;;;;;;;10.85;2.80;;;6.50;99.90;;;;;;5054861;28;20175;-78
2024/01/27 11:04:14;;;;;;;6.13;2.22;;;6.60;99.90;;;;;;5032565;28;20049;-77
2024/01/27 11:06:41;;;;;;;7.35;2.85;;;6.60;99.90;;;;;;5064971;28;20044;-78
2024/01/27 11:09:08;;;;;;;7.55;2.63;;;6.70;99.90;;;;;;5008623;28;20041;-77
2024/01/27 11:11:35;;;;;;;9.98;2.75;;;6.70;99.90;;;;;;5039516;28;20777;-76
2024/01/27 11:14:01;;;;;;;5.72;3.17;;;6.80;99.90;;;;;;5037195;28;20495;-75
2024/01/27 11:16:28;;;;;;;9.60;2.67;;;6.80;99.90;;;;;;5004286;28;20109;-75
2024/01/27 11:18:54;;;;;;;6.25;2.72;;;6.90;99.90;;;;;;5067452;28;20095;-76
2024/01/27 11:21:20;;;;;;;6.10;2.70;;;7.00;99.90;;;;;;5050300;28;20041;-74
2024/01/27 11:23:47;;;;;;;9.13;2.58;;;7.00;99.90;;;;;;5068588;28;20092;-76
2024/01/27 11:26:19;;;;;;;10.30;2.25;;;7.10;99.90;;;;;;5023464;28;20044;-76
2024/01/27 11:28:45;;;;;;;11.73;3.05;;;7.10;99.90;;;;;;5036266;28;20030;-76
2024/01/27 11:31:11;;;;;;;5.95;2.85;;;7.20;99.90;;;;;;5054773;28;20048;-76
2024/01/27 11:33:46;;;;;;;6.50;2.95;;;7.30;99.90;;;;;;5025512;28;20492;-76
2024/01/27 11:36:33;;;;;;;9.55;2.85;;;7.30;99.90;;;;;;5053566;28;20466;-76
2024/01/27 11:38:58;;;;;;;9.80;2.47;;;7.30;99.90;;;;;;5055766;28;20732;-76
2024/01/27 11:41:28;;;;;;;10.50;2.47;;;7.40;99.90;;;;;;5007918;28;20499;-76
2024/01/27 11:44:01;;;;;;;8.52;1.80;;;7.40;99.90;;;;;;5040385;28;20079;-75
2024/01/27 11:46:27;;;;;;;10.18;2.50;;;7.50;99.90;;;;;;5053201;28;20083;-75
2024/01/27 11:48:53;;;;;;;8.48;2.30;;;7.50;99.90;;;;;;5036682;28;20037;-76
2024/01/27 11:51:19;;;;;;;5.20;2.35;;;7.60;99.90;;;;;;5037035;28;20041;-75
2024/01/27 11:53:46;;;;;;;10.73;2.83;;;7.60;99.90;;;;;;5040551;28;20049;-75
2024/01/27 11:56:13;;;;;;;12.85;2.47;;;7.70;99.90;;;;;;5054635;28;20048;-75
2024/01/27 11:58:46;;;;;;;7.65;2.33;;;7.70;99.90;;;;;;5040300;28;20041;-75
2024/01/27 12:01:12;;;;;;;17.48;2.92;;;7.80;99.90;;;;;;5066786;28;20048;-75
2024/01/27 12:03:37;;;;;;;10.52;3.22;;;7.80;99.90;;;;;;5009385;28;20045;-75
2024/01/27 12:06:03;;;;;;;11.98;2.17;;;7.80;99.90;;;;;;5008641;28;20044;-73
2024/01/27 12:08:29;;;;;;;6.97;2.45;;;7.90;99.90;;;;;;5037995;28;20665;-76
2024/01/27 12:10:55;;;;;;;7.72;2.75;;;7.90;99.90;;;;;;5021688;28;20079;-75
2024/01/27 12:13:21;;;;;;;12.07;3.10;;;7.90;99.90;;;;;;5029126;28;20042;-75
2024/01/27 12:15:47;;;;;;;11.32;2.80;;;8.00;99.90;;;;;;5044522;28;20124;-75
2024/01/27 12:18:13;;;;;;;17.58;2.83;;;8.00;99.90;;;;;;5053593;28;20052;-75
2024/01/27 12:20:39;;;;;;;15.27;2.83;;;8.10;99.90;;;;;;5022950;28;20040;-75
2024/01/27 12:23:08;;;;;;;4.55;1.70;;;8.10;99.90;;;;;;5014927;28;20064;-75
2024/01/27 12:25:34;;;;;;;7.50;2.78;;;8.20;99.90;;;;;;5033826;28;20112;-75
2024/01/27 12:28:04;;;;;;;4.63;1.80;;;8.20;99.90;;;;;;5032993;28;20512;-75
2024/01/27 12:30:32;;;;;;;11.65;2.80;;;8.30;99.90;;;;;;5053198;28;20053;-76
2024/01/27 12:32:58;;;;;;;18.95;3.25;;;8.30;99.90;;;;;;5054884;28;20041;-75
2024/01/27 12:35:24;;;;;;;3.38;1.88;;;8.30;99.90;;;;;;5022365;28;20045;-75
2024/01/27 12:37:51;;;;;;;7.68;2.15;;;8.40;99.90;;;;;;5052120;28;20056;-75
2024/01/27 12:40:21;;;;;;;12.65;2.78;;;8.40;99.90;;;;;;5050385;28;20109;-75
2024/01/27 12:42:47;;;;;;;11.77;3.05;;;8.40;99.90;;;;;;5019105;28;20123;-76
2024/01/27 12:45:13;;;;;;;8.32;2.72;;;8.40;99.90;;;;;;5039292;28;20123;-75
2024/01/27 12:47:39;;;;;;;6.45;2.17;;;8.30;99.90;;;;;;5037057;28;20081;-75
2024/01/27 12:50:06;;;;;;;5.43;2.70;;;8.40;99.90;;;;;;5022470;28;20065;-75